Wally One — MVLL2 — position and weather

sailwx.info

Track history (hours):
 
Tides and Currents Weather Stations Pressure Air Temp Water Temp Dewpoint Dewpoint Depression Visibility Wind Speed Wind Dir Waves Ship Positions

Wally One

Last reported at 2016-Apr-29 06:19 UTC. Time now 2016-May-05 00:59 UTC.
Position N 40°42' E 002°21'.

Length 26 m.

Type: Sailing vessel. MMSI: 232132172.

Date/timePositionNaut miles runAvg speedWind from/ knotsBaromVisibWave heightAir tempDewpointWater temp
2016-Apr-29 06:19N 40°42' E 002°21'6 8.2
2016-Apr-29 05:33N 40°36' E 002°20'8 8.0
2016-Apr-29 04:33N 40°28' E 002°19'8 7.7
2016-Apr-29 03:33N 40°20' E 002°19'8 7.3
2016-Apr-29 02:32N 40°13' E 002°18'7 7.0
2016-Apr-29 01:33N 40°06' E 002°18'7 7.2
2016-Apr-29 00:33N 39°59' E 002°18'8 7.9
2016-Apr-28 23:33N 39°51' E 002°18'22 7.2
2016-Apr-28 20:33N 39°30' E 002°24'7 0.2
2016-Apr-27 05:30N 39°31' E 002°33'0 0.0
2016-Apr-27 03:31N 39°31' E 002°32'0 0.0
2016-Apr-27 02:31N 39°31' E 002°32'0 0.0
2016-Apr-27 01:31N 39°31' E 002°32'0 0.0
2016-Apr-27 00:22N 39°31' E 002°33'0 0.0
2016-Apr-26 20:32N 39°31' E 002°32'0 0.0
2016-Apr-26 07:15N 39°31' E 002°32'0 0.0
2016-Apr-26 06:30N 39°31' E 002°33'0 0.0
2016-Apr-26 05:25N 39°31' E 002°33'0 0.0
2016-Apr-26 04:30N 39°31' E 002°33'0 0.0
2016-Apr-26 03:33N 39°31' E 002°33'0 0.0
2016-Apr-26 02:34N 39°31' E 002°33'0 0.0
2016-Apr-26 01:28N 39°31' E 002°33'0 0.0
2016-Apr-26 00:31N 39°31' E 002°33'0 0.0
2016-Apr-25 23:28N 39°31' E 002°33'0 0.0
2016-Apr-25 22:31N 39°31' E 002°33'0 0.0
2016-Apr-25 21:25N 39°31' E 002°33'0 0.0
2016-Apr-25 20:28N 39°31' E 002°33'3 3.0
2016-Apr-25 19:33N 39°28' E 002°33'  
2016-Apr-22 01:26N 38°28' E 000°58'7 8.3
2016-Apr-22 00:32N 38°23' E 000°51'  
Track history (hours):
 
Tides and Currents Weather Stations Pressure Air Temp Water Temp Dewpoint Dewpoint Depression Visibility Wind Speed Wind Dir Waves Ship Positions

Wally One

Last reported at 2016-Apr-29 06:19 UTC. Time now 2016-May-05 00:59 UTC.
Position N 40°42' E 002°21'.

Length 26 m.

Type: Sailing vessel. MMSI: 232132172.

Date/timePositionNaut miles runAvg speedWind from/ knotsBaromVisibWave heightAir tempDewpointWater temp
2016-Apr-29 06:19N 40°42' E 002°21'6 8.2
2016-Apr-29 05:33N 40°36' E 002°20'8 8.0
2016-Apr-29 04:33N 40°28' E 002°19'8 7.7
2016-Apr-29 03:33N 40°20' E 002°19'8 7.3
2016-Apr-29 02:32N 40°13' E 002°18'7 7.0
2016-Apr-29 01:33N 40°06' E 002°18'7 7.2
2016-Apr-29 00:33N 39°59' E 002°18'8 7.9
2016-Apr-28 23:33N 39°51' E 002°18'22 7.2
2016-Apr-28 20:33N 39°30' E 002°24'7 0.2
2016-Apr-27 05:30N 39°31' E 002°33'0 0.0
2016-Apr-27 03:31N 39°31' E 002°32'0 0.0
2016-Apr-27 02:31N 39°31' E 002°32'0 0.0
2016-Apr-27 01:31N 39°31' E 002°32'0 0.0
2016-Apr-27 00:22N 39°31' E 002°33'0 0.0
2016-Apr-26 20:32N 39°31' E 002°32'0 0.0
2016-Apr-26 07:15N 39°31' E 002°32'0 0.0
2016-Apr-26 06:30N 39°31' E 002°33'0 0.0
2016-Apr-26 05:25N 39°31' E 002°33'0 0.0
2016-Apr-26 04:30N 39°31' E 002°33'0 0.0
2016-Apr-26 03:33N 39°31' E 002°33'0 0.0
2016-Apr-26 02:34N 39°31' E 002°33'0 0.0
2016-Apr-26 01:28N 39°31' E 002°33'0 0.0
2016-Apr-26 00:31N 39°31' E 002°33'0 0.0
2016-Apr-25 23:28N 39°31' E 002°33'0 0.0
2016-Apr-25 22:31N 39°31' E 002°33'0 0.0
2016-Apr-25 21:25N 39°31' E 002°33'0 0.0
2016-Apr-25 20:28N 39°31' E 002°33'3 3.0
2016-Apr-25 19:33N 39°28' E 002°33'  
2016-Apr-22 01:26N 38°28' E 000°58'7 8.3
2016-Apr-22 00:32N 38°23' E 000°51'  

Dump ship's entire track history